JP Observations

RJAA 230500Z 09007KT 010V140 9999 FEW030 25/07 Q1008 NOSIG RJAA 230500Z 09007KT 010V140 9999 FEW030 25/07 Q1008 NOSIG RMK 1CU030 A2978 RJAF 230500Z VRB04KT 9999 FEW070 23/02 Q1008 RJAH 230500Z 09009KT 060V120 9999 FEW040 24/03 Q1008 RJAW 230500Z 32007KT 250V360 9999 BKN015 27/22 Q1007 RMK 5CU015 A2976 RJBB 230500Z 30002KT 9999 FEW040 27/03 Q1009 NOSIG RJBD 230500Z 20006KT 140V260 9999 FEW040 24/11 Q1009 RJBE 230500Z 22005KT 9999 FEW040 23/10 Q1009 RJBT 230500Z 04008KT 330V070 9999 FEW035 SCT/// 27/01 Q1007 RJCB 230500Z 32010KT 9999 FEW060 26/02 Q1004 RJCC 230500Z 19014KT 9999 FEW040 20/09 Q1006 RJCC 230500Z 19014KT 9999 FEW040 20/09 Q1006 RMK 1CU040 A2973 RJCH 230500Z 23011KT 9999 FEW030 SCT120 19/10 Q1007 RJCK 230500Z 19012KT 9999 FEW040 16/08 Q1006 RJCM 230500Z 36010KT CAVOK 25/02 Q1004 RJCN 230500Z 23010KT 9999 FEW030 25/05 Q1004 RJCO 230500Z 31014KT 9999 FEW030 BKN080 BKN120 19/10 Q1006 RJCW 230500Z 24021KT 9999 FEW015 16/10 Q1004 RJDC 230500Z 25008KT 220V310 9999 FEW030 27/07 Q1009 RJDK 230500Z AUTO 20007KT 160V250 9999 NCD 23/17 Q1011 RJDT 230500Z VRB09G21KT CAVOK 26/01 Q1009 RJEB 230500Z 25013KT 9999 SCT050 26/M00 Q1003 RJEC 230500Z 26005KT 230V300 9999 VCSH FEW040 SCT060 BKN080 22/07 Q1005 RJFE 230500Z 22011KT CAVOK 24/15 Q1011 RJFF 230500Z 30012KT 250V340 9999 FEW035 SCT045 29/07 Q1009 NOSIG RJFF 230500Z 30012KT 250V340 9999 FEW035 SCT045 29/07 Q1009 NOSIG RMK 1CU035 3CU045 A2982 RJFG 230500Z 28013KT CAVOK 23/10 Q1012 RJFK 230500Z 33014KT 9999 FEW030 27/06 Q1011 RJFK 230500Z 33014KT 9999 FEW030 27/06 Q1011 RMK 1CU030 A2987 VOLCANIC ASH CLOUD S RJFM 230500Z 15014KT 9999 FEW030 27/12 Q1009 RJFO 230500Z 06004KT 360V120 9999 FEW040 21/12 Q1010 RJFR 230500Z 26005KT CAVOK 28/04 Q1009 RJFS 230500Z 18013KT 9999 FEW040 24/16 Q1010 RJFT 230500Z 25007KT 180V290 9999 FEW040 27/06 Q1011 RJFU 230500Z 25010KT CAVOK 26/13 Q1011 RJGG 230500Z 17008KT CAVOK 24/09 Q1008 NOSIG RJKA 230500Z 36011KT 320V040 9999 FEW040 27/12 Q1012 RJKI 230500Z AUTO 36008KT 9999 NCD 27/15 Q1012 RJNK 230500Z 27014KT 9999 FEW050 26/01 Q1008 RJNT 230500Z 32008KT 270V350 9999 FEW040 28/05 Q1007 RJNW 230500Z 25012KT 220V280 CAVOK 24/03 Q1008 RJOA 230500Z 20006KT 170V250 9999 FEW030 24/07 Q1010 RJOB 230500Z 21008KT 150V260 9999 FEW035 SCT/// 26/06 Q1008 RJOC 230500Z 25018KT 9999 FEW040 25/12 Q1007 RJOH 230500Z 26018KT 9999 FEW030 28/05 Q1007 RJOI 230455Z 17007KT 9999 FEW030 FEW250 24/13 A2980 RMK SLP090 T02440128 RJOK 230500Z 17005KT 140V210 9999 FEW035 24/16 Q1010 RJOM 230500Z 20011KT 9999 FEW035 25/10 Q1010 RJOO 230500Z 19007KT 140V240 9999 FEW035 28/03 Q1008 RJOO 230500Z 19007KT 140V240 9999 FEW035 28/03 Q1008 RMK 1CU035 A2978 RJOR 230500Z 01004KT 9999 FEW045 SCT/// 23/13 Q1008 RJOS 230500Z 16008KT 9999 FEW030 23/11 Q1009 RJOT 230500Z 28010KT 9999 FEW030 28/05 Q1009 RJOW 230500Z 27017KT 9999 FEW035 BKN/// 27/08 Q1009 RJOY 230500Z 28008KT 240V300 9999 FEW080 28/02 Q1008 RJSA 230500Z 25010KT 210V280 9999 FEW050 SCT120 26/04 Q1006 RJSC 230500Z VRB04KT 9999 FEW050 25/02 Q1007 RJSD 230500Z AUTO 27007KT 230V300 9999 NCD 25/04 Q1007 RJSF 230500Z 35006KT 320V050 9999 FEW045 23/00 Q1008 RJSI 230500Z VRB04KT 9999 FEW030 27/04 Q1006 RJSK 230500Z 23006KT 170V290 9999 FEW040 25/03 Q1008 RJSM 230500Z 11014KT 9999 FEW040 24/00 Q1006 RJSN 230500Z 28010KT 9999 FEW040 23/09 Q1008 RJSR 230500Z 25010KT 210V280 9999 FEW035 25/02 Q1007 RJSS 230500Z 13010KT 9999 FEW030 22/10 Q1007 RJSY 230500Z 27006KT 220V320 9999 FEW040 23/11 Q1008 RJTF 230500Z 20004KT 150V310 9999 FEW030 27/09 Q1007 RJTI 230500Z 14009KT 9999 FEW030 25/14 Q1007 RJTO 230500Z 22009KT 9999 FEW030 24/13 Q1008 RJTT 230500Z 09007KT 9999 FEW030 25/11 Q1007 BECMG 18012KT RJTT 230500Z 09007KT 9999 FEW030 25/11 Q1007 BECMG 18012KT RMK 1CU030 A2976 RJTY 230456Z AUTO 17006KT 10SM CLR 26/08 A2980 RMK AO2 SLP090 T02600080 FZRANO $ ROAH 230500Z 08007KT 020V140 9999 FEW045 SCT200 27/16 Q1012 ROAH 230500Z 08007KT 020V140 9999 FEW045 SCT200 27/16 Q1012 RMK 1SC045 3AC200 A2989 RODN 230456Z AUTO 11006KT 10SM FEW220 29/17 A2991 RMK AO2 SLP134 T02860165 $ ROIG 230500Z 07008KT 9999 SCT030 BKN045 26/19 Q1012 ROMD 230500Z AUTO 05009KT 010V100 9999 NCD 26/15 Q1011 ROMY 230500Z 05007KT 010V080 9999 VCSH SCT032 BKN080 25/18 Q1012 RORS 230500Z 03007KT 9999 VCSH FEW034 BKN080 BKN100 26/19 Q1012 ROYN 230500Z AUTO 05014KT 9999 FEW019 BKN050 BKN070 25/21 Q1012 RJNS 230500Z 19011G21KT 9999 FEW030 24/11 Q1008 ROTM 230456Z 10010KT 9999 FEW040 SCT100 27/16 A2993 RMK SLP122 T02670156